The Hartsfield Atlanta International, GA

11:59 PM EDT on May 26, 2017 (GMT -0400)
The Hartsfield Atlanta International | | Change Station

Elev 1024 ft 33.64 °N, 84.43 °W | Updated 7 minutes ago

Scattered Clouds
Scattered Clouds
72 °F
Feels Like 72 °F
N
5
Wind Variable Wind from SW

Today
High -- | Low -- °F
--% Chance of Precip.
Yesterday
High -- | Low -- °F
Precip. -- in
Pressure 29.99 in
Visibility 10.0 miles
Clouds Scattered Clouds 15000 ft
Dew Point 61 °F
Humidity 68%
Rainfall 0.00 in
Snow Depth Not available.
6:30 AM 8:39 PM
Waxing Crescent, 3% visible
METAR KATL 270352Z 22004KT 10SM SCT150 22/16 A3002 RMK AO2 SLP156 T02220161
Pressure 29.99 in
Visibility 10.0 miles
Clouds Scattered Clouds 15000 ft
Dew Point 61 °F
Humidity 68%
Rainfall 0.00 in
Snow Depth Not available.
6:30 AM 8:39 PM
Waxing Crescent, 3% visible
METAR KATL 270352Z 22004KT 10SM SCT150 22/16 A3002 RMK AO2 SLP156 T02220161

Get Severe Weather Alerts

Thanks for signing up!

Be on the lookout for a verification email in your inbox.

You'll start receiving the daily forecast at 6 AM.

×

10-Day Weather Forecast

Almanac

Astronomy

May. 26, 2017 Rise Set
Actual Time
Civil Twilight
Nautical Twilight
Astronomical Twilight
Moon
Length of Visible Light
Length of Day
Tomorrow will be .
, % of the Moon is Illuminated

Today's Extremes

State Highs State Lows

Community

WunderPhotos

Category 6

Welcome to Category 6. This is the collective home for Weather Underground's featured writeups by Dr. Jeff Masters (right), Bob Henson (left), Chris Burt, and other regular contributors.

Nearby

Air Quality

  Air Quality AQ Index Pollutant
Not available.

Snow Depth

Station Depth Elevation

Earthquake Activity

City Distance Mag. Time & Date
Minimum magnitude displayed is 2.5.

Coastal Water Temperatures

Place Temperature

Stations

Nearby Weather Stations

Station Location Temp. Windchill Dew Point Humidity Wind Precip. Elev Updated Type
                   

Watches & Warnings

There are currently no watches in effect.